createdAt,value
2018-11-22T12:18:06.003Z,21.77
2018-11-22T12:20:35.613Z,23.33
2018-11-22T12:23:05.775Z,22.07
2018-11-22T12:25:35.336Z,24.70
2018-11-22T12:28:04.994Z,20.63
2018-11-22T12:30:35.377Z,20.73
2018-11-22T12:33:07.973Z,27.03
2018-11-22T12:35:47.520Z,24.20
2018-11-22T12:38:21.907Z,24.47
2018-11-22T12:40:51.549Z,23.67
2018-11-22T12:43:21.151Z,22.83
2018-11-22T12:45:50.810Z,24.53
2018-11-22T12:48:20.791Z,21.80
2018-11-22T12:50:50.678Z,22.23
2018-11-22T12:53:20.066Z,25.37
2018-11-22T12:55:50.007Z,25.63
2018-11-22T12:58:19.399Z,24.30
2018-11-22T13:00:49.292Z,22.90
2018-11-22T13:03:19.265Z,24.30
2018-11-22T13:05:48.712Z,23.60
2018-11-22T13:08:18.166Z,21.80
2018-11-22T13:10:47.754Z,23.17
2018-11-22T13:13:17.263Z,20.50
2018-11-22T13:15:46.861Z,16.80
2018-11-22T13:18:16.687Z,17.27
2018-11-22T13:20:46.529Z,13.60
2018-11-22T13:23:16.194Z,15.13
2018-11-22T13:25:45.986Z,13.87
2018-11-22T13:28:15.459Z,14.17
2018-11-22T13:30:45.544Z,15.27
2018-11-22T13:33:14.887Z,13.87
2018-11-22T13:35:44.328Z,14.57
2018-11-22T13:38:14.007Z,13.90
2018-11-22T13:40:43.316Z,14.20
2018-11-22T13:43:12.710Z,14.93
2018-11-22T13:45:42.521Z,15.97
2018-11-22T13:48:12.203Z,16.47
2018-11-22T13:50:42.311Z,19.00
2018-11-22T13:53:11.701Z,14.70
2018-11-22T13:55:41.204Z,15.27
2018-11-22T13:58:11.062Z,16.17
2018-11-22T14:00:40.693Z,15.77
2018-11-22T14:03:10.123Z,17.53
2018-11-22T14:05:40.083Z,16.97
2018-11-22T14:08:09.699Z,16.07
2018-11-22T14:10:39.071Z,14.60
2018-11-22T14:13:08.672Z,14.30
2018-11-22T14:15:38.478Z,16.27
2018-11-22T14:18:08.364Z,15.50
2018-11-22T14:20:38.142Z,14.83
2018-11-22T14:25:49.172Z,15.00
2018-11-22T14:28:14.875Z,16.10
2018-11-22T14:30:44.855Z,14.53
2018-11-22T14:33:14.188Z,15.10
2018-11-22T14:35:43.530Z,16.60
2018-11-22T14:38:13.051Z,17.83
2018-11-22T14:40:42.463Z,27.53
2018-11-22T14:43:11.899Z,25.83
2018-11-22T14:45:41.887Z,23.90
2018-11-22T14:48:11.494Z,26.30
2018-11-22T14:50:43.147Z,27.20
2018-11-22T14:53:18.352Z,27.87
2018-11-22T14:55:48.303Z,28.87
2018-11-22T14:58:17.802Z,33.73
2018-11-22T15:00:47.382Z,28.77
2018-11-22T15:03:17.326Z,28.23
2018-11-22T15:05:46.734Z,17.67
2018-11-22T15:08:16.231Z,19.27
2018-11-22T15:10:45.479Z,21.60
2018-11-22T15:13:15.153Z,22.57
2018-11-22T15:15:44.907Z,27.97
2018-11-22T15:18:14.734Z,31.97
2018-11-22T15:20:44.384Z,31.63
2018-11-22T15:23:13.990Z,33.80
2018-11-22T15:25:43.755Z,32.03
2018-11-22T15:28:13.401Z,36.50
2018-11-22T15:30:43.445Z,34.83
2018-11-22T15:33:12.834Z,31.20
2018-11-22T15:35:42.151Z,35.80
2018-11-22T15:38:11.803Z,35.63
2018-11-22T15:40:41.366Z,35.83
2018-11-22T15:43:10.982Z,35.87
2018-11-22T15:45:40.803Z,33.07
2018-11-22T15:48:10.384Z,25.20
2018-11-22T15:50:40.305Z,24.83
2018-11-22T15:53:09.694Z,20.57
2018-11-22T15:55:39.328Z,23.33
2018-11-22T15:58:09.122Z,20.53
2018-11-22T16:00:38.907Z,22.57
2018-11-22T16:03:08.748Z,22.07
2018-11-22T16:05:38.050Z,17.77
2018-11-22T16:08:07.356Z,15.67
2018-11-22T16:10:37.728Z,13.77
2018-11-22T16:13:09.962Z,12.60
2018-11-22T16:15:44.385Z,15.10
2018-11-22T16:18:14.997Z,15.33
2018-11-22T16:20:44.819Z,16.37
2018-11-22T16:23:14.408Z,16.20
2018-11-22T16:25:43.762Z,17.97
2018-11-22T16:28:13.546Z,17.93
2018-11-22T16:30:43.643Z,19.93
2018-11-22T16:33:13.043Z,25.23
2018-11-22T16:35:42.445Z,29.03
2018-11-22T16:38:11.846Z,35.37
2018-11-22T16:40:41.417Z,29.87
2018-11-22T16:43:11.127Z,30.87
2018-11-22T16:45:40.848Z,29.97
2018-11-22T16:48:12.169Z,33.03
2018-11-22T16:50:42.437Z,35.83
2018-11-22T16:53:12.070Z,41.10
2018-11-22T16:55:41.582Z,51.63
2018-11-22T16:58:11.087Z,53.20
2018-11-22T17:00:41.531Z,46.77
2018-11-22T17:03:12.559Z,59.87
2018-11-22T17:05:42.491Z,51.23
2018-11-22T17:08:11.971Z,46.87
2018-11-22T17:10:41.872Z,43.47
2018-11-22T17:13:11.327Z,51.37
2018-11-22T17:15:41.621Z,59.53
2018-11-22T17:18:11.893Z,60.10
2018-11-22T17:20:41.423Z,65.57
2018-11-22T17:23:11.050Z,68.27
2018-11-22T17:25:41.011Z,75.60
2018-11-22T17:28:11.103Z,73.30
2018-11-22T17:30:43.064Z,68.77
2018-11-22T17:33:12.689Z,64.67
2018-11-22T17:35:42.975Z,74.07
2018-11-22T17:38:13.363Z,75.77
2018-11-22T17:40:47.429Z,55.03
2018-11-22T17:43:17.277Z,30.97
2018-11-22T17:45:50.222Z,29.03
2018-11-22T17:48:20.060Z,27.03
2018-11-22T17:50:50.207Z,30.63
2018-11-22T17:53:19.774Z,32.67
2018-11-22T17:55:49.293Z,34.17
2018-11-22T17:58:19.083Z,35.97
2018-11-22T18:00:50.530Z,37.07
2018-11-22T18:03:20.376Z,42.70
2018-11-22T18:05:50.318Z,52.10
2018-11-22T18:08:20.025Z,48.33
2018-11-22T18:10:49.594Z,46.47
2018-11-22T18:13:19.439Z,47.63
2018-11-22T18:15:54.157Z,48.67
2018-11-22T18:18:24.155Z,52.10
2018-11-22T18:20:53.857Z,57.80
2018-11-22T18:23:23.986Z,48.50
2018-11-22T18:25:53.701Z,51.07
2018-11-22T18:28:23.292Z,50.93
2018-11-22T18:30:53.001Z,38.77
2018-11-22T18:33:22.359Z,26.50
2018-11-22T18:35:51.820Z,24.70
2018-11-22T18:38:21.235Z,26.17
2018-11-22T18:40:50.675Z,31.67
2018-11-22T18:43:20.235Z,29.80
2018-11-22T18:45:50.259Z,32.83
2018-11-22T18:48:21.049Z,33.47
2018-11-22T18:50:50.887Z,26.83
2018-11-22T18:53:20.660Z,22.23
2018-11-22T18:55:50.367Z,27.10
2018-11-22T18:58:20.373Z,29.20
2018-11-22T19:00:49.884Z,26.47
2018-11-22T19:03:20.106Z,23.83
2018-11-22T19:05:49.406Z,27.63
2018-11-22T19:08:19.057Z,26.87
2018-11-22T19:10:48.662Z,27.40
2018-11-22T19:13:18.466Z,22.77
2018-11-22T19:15:48.921Z,26.33
2018-11-22T19:18:18.954Z,17.17
2018-11-22T19:20:48.340Z,20.33
2018-11-22T19:23:18.419Z,24.87
2018-11-22T19:25:48.286Z,24.37
2018-11-22T19:28:17.690Z,18.67
2018-11-22T19:30:48.608Z,22.23
2018-11-22T19:33:19.071Z,19.97
2018-11-22T19:35:50.823Z,20.93
2018-11-22T19:38:20.135Z,22.33
2018-11-22T19:40:50.023Z,24.53
2018-11-22T19:43:19.459Z,28.50
2018-11-22T19:45:49.869Z,29.27
2018-11-22T19:48:19.468Z,31.60
2018-11-22T19:50:49.408Z,30.93
2018-11-22T19:53:19.120Z,31.23
2018-11-22T19:55:48.808Z,33.90
2018-11-22T19:58:18.815Z,33.17
2018-11-22T20:00:48.511Z,35.43
2018-11-22T20:03:17.882Z,35.47
2018-11-22T20:05:47.268Z,35.80
2018-11-22T20:08:19.153Z,34.83
2018-11-22T20:10:48.954Z,34.40
2018-11-22T20:13:18.860Z,33.97
2018-11-22T20:15:48.645Z,33.43
2018-11-22T20:18:18.188Z,34.50
2018-11-22T20:20:49.928Z,34.57
2018-11-22T20:23:21.587Z,34.37
2018-11-22T20:25:47.183Z,35.13
2018-11-22T20:28:16.592Z,29.87
2018-11-22T20:30:46.506Z,28.43
2018-11-22T20:33:15.918Z,29.43
2018-11-22T20:35:45.224Z,35.03
2018-11-22T20:38:14.887Z,33.43
2018-11-22T20:40:44.559Z,32.57
2018-11-22T20:43:13.970Z,36.70
2018-11-22T20:45:43.522Z,37.87
2018-11-22T20:48:12.980Z,42.73
2018-11-22T20:50:42.727Z,29.40
2018-11-22T20:53:12.780Z,33.30
2018-11-22T20:55:42.225Z,30.23
2018-11-22T20:58:11.786Z,24.10
2018-11-22T21:00:42.214Z,27.47
2018-11-22T21:03:12.228Z,23.83
2018-11-22T21:05:41.612Z,22.10
2018-11-22T21:08:10.966Z,23.10
2018-11-22T21:10:41.058Z,20.67
2018-11-22T21:13:10.607Z,21.67
2018-11-22T21:15:40.278Z,20.17
2018-11-22T21:18:09.992Z,23.13
2018-11-22T21:20:40.805Z,24.23
2018-11-22T21:23:10.940Z,20.57
2018-11-22T21:25:40.384Z,22.23
2018-11-22T21:28:10.053Z,24.87
2018-11-22T21:30:40.505Z,22.73
2018-11-22T21:33:09.864Z,25.93
2018-11-22T21:35:39.222Z,26.47
2018-11-22T21:38:09.462Z,23.20
2018-11-22T21:40:39.171Z,23.90
2018-11-22T21:43:08.567Z,25.97
2018-11-22T21:45:38.128Z,25.87
2018-11-22T21:48:07.854Z,31.57
2018-11-22T21:50:37.391Z,40.30
2018-11-22T21:53:06.974Z,38.57
2018-11-22T21:55:36.804Z,40.90
2018-11-22T21:58:06.578Z,39.47
2018-11-22T22:00:38.307Z,36.20
2018-11-22T22:03:08.702Z,35.83
2018-11-22T22:05:38.544Z,30.53
2018-11-22T22:08:08.539Z,29.40
2018-11-22T22:10:38.003Z,25.70
2018-11-22T22:13:07.932Z,30.30
2018-11-22T22:15:38.129Z,27.50
2018-11-22T22:18:09.368Z,26.27
2018-11-22T22:20:38.835Z,25.87
2018-11-22T22:23:13.191Z,27.67
2018-11-22T22:25:38.287Z,26.17
2018-11-22T22:28:08.119Z,28.27
2018-11-22T22:30:37.803Z,29.33
2018-11-22T22:33:07.700Z,27.93
2018-11-22T22:35:37.045Z,27.60
2018-11-22T22:38:07.118Z,28.37
2018-11-22T22:40:36.787Z,26.43
2018-11-22T22:43:06.802Z,25.23
2018-11-22T22:45:36.729Z,27.27
2018-11-22T22:48:06.538Z,26.13
2018-11-22T22:50:36.140Z,25.57
2018-11-22T22:53:06.036Z,25.23
2018-11-22T22:55:35.647Z,27.87
2018-11-22T22:58:05.699Z,26.47
2018-11-22T23:00:35.220Z,27.97
2018-11-22T23:03:06.373Z,25.83
2018-11-22T23:05:36.470Z,29.03
2018-11-22T23:08:06.070Z,23.27
2018-11-22T23:10:35.619Z,27.63
2018-11-22T23:13:05.688Z,19.63
2018-11-22T23:15:35.138Z,21.17
2018-11-22T23:18:05.002Z,19.43
2018-11-22T23:20:35.840Z,18.97
2018-11-22T23:23:05.796Z,19.83
2018-11-22T23:25:35.368Z,18.63
2018-11-22T23:28:05.081Z,18.87
2018-11-22T23:30:35.245Z,18.80
2018-11-22T23:33:06.204Z,18.97
2018-11-22T23:35:35.631Z,18.37
2018-11-22T23:38:05.196Z,20.50
2018-11-22T23:40:35.287Z,19.90
2018-11-22T23:43:04.925Z,20.63
2018-11-22T23:45:35.042Z,21.37
2018-11-22T23:48:04.484Z,21.97
2018-11-22T23:50:34.431Z,20.20
2018-11-22T23:53:04.676Z,22.77
2018-11-22T23:55:34.222Z,25.40
2018-11-22T23:58:03.705Z,26.97
